Más de esta sección

VUELOS DE BAJOS NIVEL - Aeronáutica

                 

                             

 

VUELOS DE BAJO NIVEL DESDE SUPERFICIE HASTA 24,000 PIES

 VALIDO DESDE 081200Z...………………HASTA 090000Z

SALIDA  Y  PUESTA  DEL  SOL  06:59/18:03 

SANTO DOMINGO FIR...PORT-AU-PRINCE FIR SCT020 SCT050. OCNL BKN050 TOP 120. ISOL SHRA. OTLK...VFR SHRA

 

5,000 FT.

10,000 FT.

18,000 FT.

24,000 FT.

MDSD

0620KT+14ºC

0415+09ºC

0120KT-05ºC

3615KT-19ºC

MTPP

0720KT+14ºC

0615+10ºC

0220KT-05ºC

3615KT-19ºC

TJSJ

0415KT+13ºC

0215+08ºC

3625KT-05ºC

3635KT-20ºC

 

 

 

 

 

TERMINALES

TAF MDPP 081000Z 0812/0912 00000KT 9999 BKN015 PROB30 0812/0818 7000 -RA BKN018 BKN070 BECMG 0814/0816 09010KT=

TAF MDST 081000Z 0812/0912 VRB03KT 9999 SCT016 PROB30 0812/0818 7000 -SHRA FEW014CB SCT015 SCT070 BECMG 0813/0815 34006KT=

TAF MDPC 081000Z 0812/0912 35015KT 9999 SCT022 PROB30 0813/0819 7000 -RA BKN016 SCT070=

TAF MDBH 081000Z 0812/0912 27006KT 9999 SCT018 SCT080 BECMG 0815/0817 36010KT=

TAF MDJB 081000Z 0812/0912 36010KT 9999 SCT018 PROB30 0814/0820 7000 -SHRA BKN014 SCT070=

TAF MDSD 081000Z 0812/0912 02006KT 9999 SCT018 BECMG 0815/0817 36010G20KT PROB30 0815/0821 8000 -RA BKN014=

TAF MDLR 081000Z 0812/0912 01007KT 9999 SCT018 PROB30 0812/0818 7000 -RA BKN016 SCT070=

TAF MDCY 081000Z 0812/0912 06008KT 9999 SCT016 TEMPO 0812/0816 -RA BKN014 BKN070=

KMIA 080855Z 0809/0912 35004KT P6SM FEW035 FM081300 02004KT P6SM FEW035
FM081500 07008KT P6SM SCT035 SCT060 FM090400 05003KT P6SM SCT050 FM090600 36002KT P6SM BKN250

KJFK 080830Z 0809/0912 33011KT P6SM FEW025 SCT250 FM081400 33013G20KT P6SM FEW035 SCT250 FM082100 34013KT P6SM FEW035 SCT250 FM090500 36012KT P6SM FEW250

TJSJ 080540Z 0806/0906 36007KT P6SM VCSH SCT080 FM081000 36010KT P6SM VCSH FEW025 SCT040 SCT060 FM082200 02010KT P6SM VCSH SCT035 SCT050 BKN080

MUHA 080500Z 0806/0906 06010KT 9000 SCT030 BECMG 0814/0816 07010KT BECMG 0901/0903 VRB03KT

TAF COR MUGM 0808/0907 33006KT 9999 FEW080 QNH3000INS BECMG 0812/0814 02008KT 9999 SCT050 SCT080 QNH2997INS BECMG 0822/0900 33013G23KT 9999 SCT050 QNH2995INS T20/0810Z T31/0818Z COR 0852 FN00246

TAF TNCC 080515Z 0806/0906 06007KT 9999 SCT018 PROB30 TEMPO 0806/0824 4000 SHRA BKN014

TAF MKJP 080515Z 0806/0906 34005KT 9999 FEW020 BECMG 0814/0816 17010KT FEW024CB SCT038 BECMG 0902/0904 33005KT

PREPARADO POR: HENRIQUEZ A. EL 08 DE DICIEMBRE DE 2022.